createdAt,value
2023-05-07T00:00:32.500Z,0.00
2023-05-07T00:01:32.498Z,0.00
2023-05-07T00:02:32.546Z,0.00
2023-05-07T00:03:32.532Z,0.00
2023-05-07T00:04:32.506Z,0.00
2023-05-07T00:05:32.446Z,0.00
2023-05-07T00:06:32.432Z,0.00
2023-05-07T00:07:32.398Z,0.00
2023-05-07T00:08:32.399Z,0.00
2023-05-07T00:09:32.559Z,0.00
2023-05-07T00:10:32.407Z,0.00
2023-05-07T00:11:32.378Z,0.00
2023-05-07T00:12:32.359Z,0.00
2023-05-07T00:13:32.333Z,0.00
2023-05-07T00:14:32.347Z,0.00
2023-05-07T00:15:32.302Z,0.00
2023-05-07T00:16:32.373Z,0.00
2023-05-07T00:17:32.419Z,0.00
2023-05-07T00:18:32.282Z,0.00
2023-05-07T00:19:32.279Z,0.00
2023-05-07T00:20:33.471Z,0.00
2023-05-07T00:21:32.251Z,0.00
2023-05-07T00:22:32.232Z,0.00
2023-05-07T00:23:32.280Z,0.00
2023-05-07T00:24:32.217Z,0.00
2023-05-07T00:25:32.227Z,0.00
2023-05-07T00:26:32.189Z,0.00
2023-05-07T00:27:32.184Z,0.00
2023-05-07T00:28:32.168Z,0.00
2023-05-07T00:29:32.167Z,0.00
2023-05-07T00:30:32.181Z,0.00
2023-05-07T00:31:32.175Z,0.00
2023-05-07T00:32:32.141Z,0.00
2023-05-07T00:33:32.125Z,0.00
2023-05-07T00:34:32.135Z,0.00
2023-05-07T00:35:32.094Z,0.00
2023-05-07T00:36:32.112Z,0.00
2023-05-07T00:37:32.068Z,0.00
2023-05-07T00:38:32.062Z,0.00
2023-05-07T00:39:32.064Z,0.00
2023-05-07T00:40:32.049Z,0.00
2023-05-07T00:41:32.034Z,0.00
2023-05-07T00:42:32.031Z,0.00
2023-05-07T00:43:31.989Z,0.00
2023-05-07T00:44:32.000Z,0.00
2023-05-07T00:45:31.993Z,0.00
2023-05-07T00:46:32.057Z,0.00
2023-05-07T00:47:32.035Z,0.00
2023-05-07T00:48:31.978Z,0.00
2023-05-07T00:49:31.926Z,0.00
2023-05-07T00:50:31.922Z,0.00
2023-05-07T00:51:31.930Z,0.00
2023-05-07T00:52:31.903Z,0.00
2023-05-07T00:53:31.886Z,0.00
2023-05-07T00:54:31.916Z,0.00
2023-05-07T00:55:31.861Z,0.00
2023-05-07T00:56:31.851Z,0.00
2023-05-07T00:57:31.930Z,0.00
2023-05-07T00:58:31.829Z,0.00
2023-05-07T00:59:31.857Z,0.00
2023-05-07T01:00:31.891Z,0.00
2023-05-07T01:01:31.870Z,0.00
2023-05-07T01:02:31.810Z,0.00
2023-05-07T01:03:31.770Z,0.00
2023-05-07T01:04:31.874Z,0.00
2023-05-07T01:05:31.746Z,0.00
2023-05-07T01:06:31.870Z,0.00
2023-05-07T01:07:31.736Z,0.00
2023-05-07T01:08:31.729Z,0.00
2023-05-07T01:09:31.702Z,0.00
2023-05-07T01:10:31.737Z,0.00
2023-05-07T01:11:31.692Z,0.00
2023-05-07T01:12:31.688Z,0.00
2023-05-07T01:13:31.683Z,0.00
2023-05-07T01:14:31.650Z,0.00
2023-05-07T01:15:31.638Z,0.00
2023-05-07T01:16:31.644Z,0.00
2023-05-07T01:17:31.654Z,0.00
2023-05-07T01:18:31.638Z,0.00
2023-05-07T01:19:31.582Z,0.00
2023-05-07T01:20:31.640Z,0.00
2023-05-07T01:21:31.582Z,0.00
2023-05-07T01:22:31.581Z,0.00
2023-05-07T01:23:31.569Z,0.00
2023-05-07T01:24:31.555Z,0.00
2023-05-07T01:25:31.523Z,0.00
2023-05-07T01:26:31.530Z,0.00
2023-05-07T01:27:31.502Z,0.00
2023-05-07T01:28:31.498Z,0.00
2023-05-07T01:29:31.579Z,0.00
2023-05-07T01:30:31.469Z,0.00
2023-05-07T01:31:31.537Z,0.00
2023-05-07T01:32:31.508Z,0.00
2023-05-07T01:33:31.434Z,0.00
2023-05-07T01:34:31.450Z,0.00
2023-05-07T01:35:31.404Z,0.00
2023-05-07T01:36:31.398Z,0.00
2023-05-07T01:37:31.442Z,0.00
2023-05-07T01:38:31.372Z,0.00
2023-05-07T01:39:31.362Z,0.00
2023-05-07T01:40:31.358Z,0.00
2023-05-07T01:41:31.338Z,0.00
2023-05-07T01:42:31.330Z,0.00
2023-05-07T01:43:31.360Z,0.00
2023-05-07T01:44:31.314Z,0.00
2023-05-07T01:45:31.321Z,0.00
2023-05-07T01:46:31.324Z,0.00
2023-05-07T01:47:31.320Z,0.00
2023-05-07T01:48:31.262Z,0.00
2023-05-07T01:49:31.266Z,0.00
2023-05-07T01:50:31.238Z,0.00
2023-05-07T01:51:31.236Z,0.00
2023-05-07T01:52:31.210Z,0.00
2023-05-07T01:53:31.238Z,0.00
2023-05-07T01:54:31.189Z,0.00
2023-05-07T01:55:31.222Z,0.00
2023-05-07T01:56:31.166Z,0.00
2023-05-07T01:57:31.151Z,0.00
2023-05-07T01:58:31.149Z,0.00
2023-05-07T01:59:41.052Z,0.00
2023-05-07T02:00:31.120Z,0.00
2023-05-07T02:01:31.281Z,0.00
2023-05-07T02:02:31.210Z,0.00
2023-05-07T02:03:31.229Z,0.00
2023-05-07T02:04:31.071Z,0.00
2023-05-07T02:05:31.059Z,0.00
2023-05-07T02:06:31.149Z,0.00
2023-05-07T02:07:31.045Z,0.00
2023-05-07T02:08:31.070Z,0.00
2023-05-07T02:09:31.102Z,0.00
2023-05-07T02:10:31.029Z,0.00
2023-05-07T02:11:31.045Z,0.00
2023-05-07T02:12:30.988Z,0.00
2023-05-07T02:13:31.018Z,0.00
2023-05-07T02:14:31.000Z,0.00
2023-05-07T02:15:30.988Z,0.00
2023-05-07T02:16:31.052Z,0.00
2023-05-07T02:17:31.078Z,0.00
2023-05-07T02:18:30.937Z,0.00
2023-05-07T02:19:30.958Z,0.00
2023-05-07T02:20:30.903Z,0.00
2023-05-07T02:21:31.352Z,0.00
2023-05-07T02:22:30.876Z,0.00
2023-05-07T02:23:30.891Z,0.00
2023-05-07T02:24:30.903Z,0.00
2023-05-07T02:25:30.874Z,0.00
2023-05-07T02:26:30.837Z,0.00
2023-05-07T02:27:30.821Z,0.00
2023-05-07T02:28:30.864Z,0.00
2023-05-07T02:29:30.801Z,0.00
2023-05-07T02:30:30.780Z,0.00
2023-05-07T02:31:30.844Z,0.00
2023-05-07T02:32:30.846Z,0.00
2023-05-07T02:33:30.781Z,0.00
2023-05-07T02:34:30.775Z,0.00
2023-05-07T02:35:30.742Z,0.00
2023-05-07T02:36:30.766Z,0.00
2023-05-07T02:37:30.725Z,0.00
2023-05-07T02:38:30.720Z,0.00
2023-05-07T02:39:30.706Z,0.00
2023-05-07T02:40:30.744Z,0.00
2023-05-07T02:41:30.796Z,0.00
2023-05-07T02:42:30.673Z,0.00
2023-05-07T02:43:30.675Z,0.00
2023-05-07T02:44:30.644Z,0.00
2023-05-07T02:45:30.726Z,0.00
2023-05-07T02:46:30.727Z,0.00
2023-05-07T02:47:30.663Z,0.00
2023-05-07T02:48:30.603Z,0.00
2023-05-07T02:49:30.852Z,0.00
2023-05-07T02:50:30.636Z,0.00
2023-05-07T02:51:30.577Z,0.00
2023-05-07T02:52:30.604Z,0.00
2023-05-07T02:53:30.556Z,0.00
2023-05-07T02:54:30.556Z,0.00
2023-05-07T02:55:30.543Z,0.00
2023-05-07T02:56:30.516Z,0.00
2023-05-07T02:57:30.515Z,0.00
2023-05-07T02:58:30.515Z,0.00
2023-05-07T02:59:30.476Z,0.00
2023-05-07T03:00:30.506Z,0.00
2023-05-07T03:01:30.530Z,0.00
2023-05-07T03:02:30.502Z,0.00
2023-05-07T03:03:30.495Z,0.00
2023-05-07T03:04:30.470Z,0.00
2023-05-07T03:05:30.611Z,0.00
2023-05-07T03:06:30.416Z,0.00
2023-05-07T03:07:30.403Z,0.00
2023-05-07T03:08:30.376Z,0.00
2023-05-07T03:09:30.376Z,0.00
2023-05-07T03:10:30.368Z,0.00
2023-05-07T03:11:30.388Z,0.00
2023-05-07T03:12:30.327Z,0.00
2023-05-07T03:13:30.319Z,0.00
2023-05-07T03:14:30.307Z,0.00
2023-05-07T03:15:30.341Z,0.00
2023-05-07T03:16:30.443Z,0.00
2023-05-07T03:17:30.328Z,0.00
2023-05-07T03:18:30.270Z,0.00
2023-05-07T03:19:30.292Z,0.00
2023-05-07T03:20:30.289Z,0.00
2023-05-07T03:21:30.534Z,0.00
2023-05-07T03:22:30.235Z,0.00
2023-05-07T03:23:30.219Z,0.00
2023-05-07T03:24:30.223Z,0.00
2023-05-07T03:25:30.225Z,0.00
2023-05-07T03:26:30.197Z,0.00
2023-05-07T03:27:30.168Z,0.00
2023-05-07T03:28:30.199Z,0.00
2023-05-07T03:29:30.193Z,0.00
2023-05-07T03:30:30.159Z,0.00
2023-05-07T03:31:30.176Z,0.00
2023-05-07T03:32:30.180Z,0.00
2023-05-07T03:33:30.104Z,0.00
2023-05-07T03:34:30.107Z,0.00
2023-05-07T03:35:30.115Z,0.00
2023-05-07T03:36:30.128Z,0.00
2023-05-07T03:37:30.073Z,0.00
2023-05-07T03:38:30.056Z,4.00
2023-05-07T03:39:30.064Z,0.00
2023-05-07T03:40:30.065Z,0.00
2023-05-07T03:41:30.087Z,4.00
2023-05-07T03:42:30.001Z,0.00
2023-05-07T03:43:30.022Z,0.00
2023-05-07T03:44:30.021Z,0.00
2023-05-07T03:45:30.019Z,4.00
2023-05-07T03:46:30.008Z,4.00
2023-05-07T03:47:29.967Z,0.00
2023-05-07T03:48:29.984Z,4.00
2023-05-07T03:49:29.959Z,0.00
2023-05-07T03:50:29.920Z,4.00
2023-05-07T03:51:29.895Z,4.00
2023-05-07T03:52:29.921Z,4.00
2023-05-07T03:53:29.962Z,4.00
2023-05-07T03:54:29.879Z,4.00
2023-05-07T03:55:29.878Z,4.00
2023-05-07T03:56:29.866Z,8.00
2023-05-07T03:57:29.842Z,4.00
2023-05-07T03:58:29.872Z,8.00
2023-05-07T03:59:29.815Z,8.00
2023-05-07T04:00:29.826Z,8.00
2023-05-07T04:01:29.802Z,8.00
2023-05-07T04:02:29.872Z,8.00
2023-05-07T04:03:29.850Z,12.00
2023-05-07T04:04:29.777Z,8.00
2023-05-07T04:05:29.770Z,12.00
2023-05-07T04:06:29.741Z,8.00
2023-05-07T04:07:29.757Z,12.00
2023-05-07T04:08:29.714Z,12.00
2023-05-07T04:09:29.789Z,16.00
2023-05-07T04:10:29.742Z,16.00
2023-05-07T04:11:29.678Z,16.00
2023-05-07T04:12:29.684Z,16.00
2023-05-07T04:13:29.655Z,20.00
2023-05-07T04:14:29.701Z,20.00
2023-05-07T04:15:29.670Z,20.00
2023-05-07T04:16:29.690Z,20.00
2023-05-07T04:17:29.708Z,24.00
2023-05-07T04:18:29.616Z,24.00
2023-05-07T04:19:29.584Z,24.00
2023-05-07T04:20:29.602Z,28.00
2023-05-07T04:21:29.594Z,28.00
2023-05-07T04:22:29.573Z,28.00
2023-05-07T04:23:29.580Z,32.00
2023-05-07T04:24:29.570Z,28.00
2023-05-07T04:25:29.620Z,28.00
2023-05-07T04:26:29.510Z,32.00
2023-05-07T04:27:29.502Z,28.00
2023-05-07T04:28:29.508Z,32.00
2023-05-07T04:29:29.554Z,32.00
2023-05-07T04:30:29.464Z,32.00
2023-05-07T04:31:29.499Z,32.00
2023-05-07T04:32:29.514Z,36.00
2023-05-07T04:33:29.433Z,36.00
2023-05-07T04:34:29.431Z,40.00
2023-05-07T04:35:29.404Z,40.00
2023-05-07T04:36:29.402Z,44.00
2023-05-07T04:37:29.408Z,44.00
2023-05-07T04:38:29.407Z,48.00
2023-05-07T04:39:29.351Z,48.00
2023-05-07T04:40:29.396Z,52.00
2023-05-07T04:41:29.354Z,52.00
2023-05-07T04:42:29.338Z,56.00
2023-05-07T04:43:29.337Z,60.00
2023-05-07T04:44:29.300Z,68.00
2023-05-07T04:45:29.326Z,72.00
2023-05-07T04:46:29.358Z,76.00
2023-05-07T04:47:29.338Z,80.00
2023-05-07T04:48:29.280Z,84.00
2023-05-07T04:49:29.274Z,88.00
2023-05-07T04:50:29.262Z,92.00
2023-05-07T04:51:29.239Z,100.00
2023-05-07T04:52:29.203Z,104.00
2023-05-07T04:53:29.204Z,108.00
2023-05-07T04:54:29.199Z,116.00
2023-05-07T04:55:29.213Z,124.00
2023-05-07T04:56:29.160Z,128.00
2023-05-07T04:57:29.251Z,136.00
2023-05-07T04:58:29.149Z,144.00
2023-05-07T04:59:29.162Z,144.00
2023-05-07T05:00:29.180Z,152.00
2023-05-07T05:01:29.178Z,152.00
2023-05-07T05:02:29.157Z,156.00
2023-05-07T05:03:29.172Z,160.00
2023-05-07T05:04:29.078Z,168.00
2023-05-07T05:05:29.068Z,168.00
2023-05-07T05:06:29.053Z,176.00
2023-05-07T05:07:29.085Z,184.00
2023-05-07T05:08:29.031Z,188.00
2023-05-07T05:09:29.030Z,196.00
2023-05-07T05:10:29.028Z,204.00
2023-05-07T05:11:29.024Z,208.00
2023-05-07T05:12:29.001Z,216.00
2023-05-07T05:13:29.060Z,228.00
2023-05-07T05:14:29.003Z,236.00
2023-05-07T05:15:29.280Z,244.00
2023-05-07T05:16:29.004Z,252.00
2023-05-07T05:17:28.964Z,256.00
2023-05-07T05:18:28.933Z,264.00
2023-05-07T05:19:28.928Z,276.00
2023-05-07T05:20:28.922Z,280.00
2023-05-07T05:21:28.900Z,284.00
2023-05-07T05:22:28.900Z,292.00
2023-05-07T05:23:28.900Z,292.00
2023-05-07T05:24:28.861Z,292.00
2023-05-07T05:25:28.881Z,288.00
2023-05-07T05:26:28.858Z,288.00
2023-05-07T05:27:28.867Z,284.00
2023-05-07T05:28:28.859Z,280.00
2023-05-07T05:29:28.883Z,280.00
2023-05-07T05:30:28.790Z,276.00
2023-05-07T05:31:28.881Z,276.00
2023-05-07T05:32:28.832Z,276.00
2023-05-07T05:33:28.792Z,280.00
2023-05-07T05:34:28.766Z,276.00
2023-05-07T05:35:28.731Z,280.00
2023-05-07T05:36:28.745Z,308.00
2023-05-07T05:37:28.741Z,312.00
2023-05-07T05:38:28.698Z,292.00
2023-05-07T05:39:28.729Z,292.00
2023-05-07T05:40:28.685Z,296.00
2023-05-07T05:41:28.670Z,300.00
2023-05-07T05:42:28.699Z,304.00
2023-05-07T05:43:28.657Z,304.00
2023-05-07T05:44:28.646Z,304.00
2023-05-07T05:45:28.760Z,296.00
2023-05-07T05:46:28.630Z,296.00
2023-05-07T05:47:28.618Z,300.00
2023-05-07T05:48:28.610Z,312.00
2023-05-07T05:49:28.600Z,320.00
2023-05-07T05:50:28.616Z,328.00
2023-05-07T05:51:28.609Z,348.00
2023-05-07T05:52:28.578Z,364.00
2023-05-07T05:53:28.532Z,392.00
2023-05-07T05:54:28.528Z,432.00
2023-05-07T05:55:28.541Z,432.00
2023-05-07T05:56:28.522Z,460.00
2023-05-07T05:57:28.933Z,500.00
2023-05-07T05:58:28.479Z,568.00
2023-05-07T05:59:28.521Z,740.00
2023-05-07T06:00:28.480Z,936.00
2023-05-07T06:01:28.572Z,1136.00
2023-05-07T06:02:28.476Z,864.00
2023-05-07T06:03:28.466Z,836.00
2023-05-07T06:04:28.459Z,820.00
2023-05-07T06:05:28.561Z,1384.00
2023-05-07T06:06:28.443Z,1216.00
2023-05-07T06:07:28.382Z,1180.00
2023-05-07T06:08:28.403Z,916.00
2023-05-07T06:09:28.356Z,756.00
2023-05-07T06:10:28.480Z,716.00
2023-05-07T06:11:28.335Z,720.00
2023-05-07T06:12:28.330Z,700.00
2023-05-07T06:13:28.379Z,772.00
2023-05-07T06:14:28.315Z,664.00
2023-05-07T06:15:28.291Z,628.00
2023-05-07T06:16:28.389Z,596.00
2023-05-07T06:17:28.409Z,584.00
2023-05-07T06:18:28.267Z,560.00
2023-05-07T06:19:28.265Z,532.00
2023-05-07T06:20:28.262Z,516.00
2023-05-07T06:21:28.659Z,504.00
2023-05-07T06:22:28.239Z,488.00
2023-05-07T06:23:28.209Z,476.00
2023-05-07T06:24:28.196Z,464.00
2023-05-07T06:25:28.186Z,456.00
2023-05-07T06:26:28.173Z,448.00
2023-05-07T06:27:28.199Z,436.00
2023-05-07T06:28:28.173Z,424.00
2023-05-07T06:29:28.165Z,408.00
2023-05-07T06:30:28.142Z,396.00
2023-05-07T06:31:28.178Z,380.00
2023-05-07T06:32:28.213Z,376.00
2023-05-07T06:33:28.195Z,372.00
2023-05-07T06:34:28.120Z,368.00
2023-05-07T06:35:28.092Z,368.00
2023-05-07T06:36:28.080Z,364.00
2023-05-07T06:37:28.062Z,368.00
2023-05-07T06:38:28.087Z,368.00
2023-05-07T06:39:28.045Z,368.00
2023-05-07T06:40:28.040Z,372.00
2023-05-07T06:41:28.014Z,368.00
2023-05-07T06:42:28.040Z,368.00
2023-05-07T06:43:28.046Z,368.00
2023-05-07T06:44:27.974Z,356.00
2023-05-07T06:45:27.967Z,356.00
2023-05-07T06:46:28.070Z,348.00
2023-05-07T06:47:28.037Z,348.00
2023-05-07T06:48:27.937Z,344.00
2023-05-07T06:49:28.017Z,336.00
2023-05-07T06:50:27.928Z,336.00
2023-05-07T06:51:27.941Z,336.00
2023-05-07T06:52:27.913Z,332.00
2023-05-07T06:53:27.917Z,336.00
2023-05-07T06:54:27.900Z,340.00
2023-05-07T06:55:27.872Z,340.00
2023-05-07T06:56:27.849Z,344.00
2023-05-07T06:57:27.854Z,344.00
2023-05-07T06:58:27.876Z,340.00
2023-05-07T06:59:27.832Z,336.00
2023-05-07T07:00:27.822Z,328.00
2023-05-07T07:01:27.852Z,324.00
2023-05-07T07:02:27.816Z,324.00
2023-05-07T07:03:27.790Z,320.00
2023-05-07T07:04:27.768Z,316.00
2023-05-07T07:05:27.802Z,312.00
2023-05-07T07:06:27.741Z,320.00
2023-05-07T07:07:27.728Z,324.00
2023-05-07T07:08:27.716Z,332.00
2023-05-07T07:09:27.695Z,340.00
2023-05-07T07:10:27.765Z,348.00
2023-05-07T07:11:27.705Z,360.00
2023-05-07T07:12:27.665Z,368.00
2023-05-07T07:13:27.709Z,372.00
2023-05-07T07:14:27.651Z,380.00
2023-05-07T07:15:27.632Z,388.00
2023-05-07T07:16:27.769Z,396.00
2023-05-07T07:17:27.706Z,408.00
2023-05-07T07:18:27.607Z,420.00
2023-05-07T07:19:27.588Z,436.00
2023-05-07T07:20:27.596Z,448.00
2023-05-07T07:21:27.584Z,464.00
2023-05-07T07:22:27.582Z,476.00
2023-05-07T07:23:27.541Z,496.00
2023-05-07T07:24:27.560Z,516.00
2023-05-07T07:25:27.526Z,540.00
2023-05-07T07:26:27.525Z,560.00
2023-05-07T07:27:27.494Z,576.00
2023-05-07T07:28:27.534Z,592.00
2023-05-07T07:29:27.485Z,604.00
2023-05-07T07:30:27.471Z,612.00
2023-05-07T07:31:27.487Z,624.00
2023-05-07T07:32:27.487Z,632.00
2023-05-07T07:33:27.439Z,632.00
2023-05-07T07:34:27.455Z,652.00
2023-05-07T07:35:27.429Z,656.00
2023-05-07T07:36:38.588Z,664.00
2023-05-07T07:37:27.486Z,676.00
2023-05-07T07:38:27.388Z,692.00
2023-05-07T07:39:27.373Z,716.00
2023-05-07T07:40:27.356Z,740.00
2023-05-07T07:41:27.384Z,764.00
2023-05-07T07:42:27.339Z,796.00
2023-05-07T07:43:27.342Z,828.00
2023-05-07T07:44:27.316Z,856.00
2023-05-07T07:45:27.303Z,892.00
2023-05-07T07:46:27.418Z,920.00
2023-05-07T07:47:27.369Z,924.00
2023-05-07T07:48:27.278Z,928.00
2023-05-07T07:49:27.277Z,948.00
2023-05-07T07:50:42.985Z,996.00
2023-05-07T07:51:27.252Z,1028.00
2023-05-07T07:52:27.253Z,1100.00
2023-05-07T07:53:27.324Z,1252.00
2023-05-07T07:54:27.221Z,1668.00
2023-05-07T07:55:27.232Z,1448.00
2023-05-07T07:56:27.215Z,1116.00
2023-05-07T07:57:27.169Z,1040.00
2023-05-07T07:58:27.176Z,1012.00
2023-05-07T07:59:27.157Z,1004.00
2023-05-07T08:00:27.161Z,1180.00
2023-05-07T08:01:27.147Z,1004.00
2023-05-07T08:02:27.248Z,996.00
2023-05-07T08:03:27.220Z,992.00
2023-05-07T08:04:27.207Z,1004.00
2023-05-07T08:05:27.081Z,1028.00
2023-05-07T08:06:27.110Z,1092.00
2023-05-07T08:07:27.215Z,1256.00
2023-05-07T08:08:27.059Z,1148.00
2023-05-07T08:09:27.129Z,1356.00
2023-05-07T08:10:27.128Z,1224.00
2023-05-07T08:11:27.025Z,1776.00
2023-05-07T08:12:27.012Z,1876.00
2023-05-07T08:13:27.086Z,1864.00
2023-05-07T08:14:27.037Z,1816.00
2023-05-07T08:15:27.007Z,1828.00
2023-05-07T08:16:27.080Z,1696.00
2023-05-07T08:17:27.035Z,1408.00
2023-05-07T08:18:26.955Z,1344.00
2023-05-07T08:19:26.979Z,1264.00
2023-05-07T08:20:26.927Z,1320.00
2023-05-07T08:21:26.933Z,1380.00
2023-05-07T08:22:26.966Z,1280.00
2023-05-07T08:23:26.942Z,1156.00
2023-05-07T08:24:26.884Z,1040.00
2023-05-07T08:25:27.011Z,996.00
2023-05-07T08:26:26.884Z,968.00
2023-05-07T08:27:26.928Z,944.00
2023-05-07T08:28:26.838Z,924.00
2023-05-07T08:29:26.827Z,900.00
2023-05-07T08:30:26.881Z,884.00
2023-05-07T08:31:26.849Z,888.00
2023-05-07T08:32:26.890Z,904.00
2023-05-07T08:33:26.785Z,992.00
2023-05-07T08:34:26.823Z,1048.00
2023-05-07T08:35:26.811Z,1108.00
2023-05-07T08:36:26.830Z,1200.00
2023-05-07T08:37:26.746Z,1312.00
2023-05-07T08:38:26.729Z,1404.00
2023-05-07T08:39:26.726Z,1440.00
2023-05-07T08:40:26.730Z,1724.00
2023-05-07T08:41:26.732Z,1900.00
2023-05-07T08:42:26.695Z,1792.00
2023-05-07T08:43:26.787Z,1900.00
2023-05-07T08:44:26.670Z,1660.00
2023-05-07T08:45:26.673Z,1528.00
2023-05-07T08:46:26.808Z,1344.00
2023-05-07T08:47:26.659Z,1312.00
2023-05-07T08:48:26.692Z,1360.00
2023-05-07T08:49:26.629Z,1508.00
2023-05-07T08:50:26.627Z,1708.00
2023-05-07T08:51:26.666Z,1616.00
2023-05-07T08:52:26.616Z,1744.00
2023-05-07T08:53:26.558Z,1880.00
2023-05-07T08:54:26.671Z,1608.00
2023-05-07T08:55:26.549Z,1572.00
2023-05-07T08:56:26.521Z,1692.00
2023-05-07T08:57:26.639Z,1792.00
2023-05-07T08:58:26.517Z,1760.00
2023-05-07T08:59:26.513Z,1888.00
2023-05-07T09:00:26.504Z,1928.00
2023-05-07T09:01:26.479Z,1708.00
2023-05-07T09:02:26.597Z,1716.00
2023-05-07T09:03:26.500Z,1772.00
2023-05-07T09:04:26.456Z,1932.00
2023-05-07T09:05:26.434Z,1800.00
2023-05-07T09:06:26.432Z,2224.00
2023-05-07T09:07:26.430Z,2224.00
2023-05-07T09:08:26.438Z,1576.00
2023-05-07T09:09:26.388Z,1624.00
2023-05-07T09:10:26.393Z,1788.00
2023-05-07T09:11:26.422Z,2080.00
2023-05-07T09:12:26.391Z,2040.00
2023-05-07T09:13:26.428Z,1824.00
2023-05-07T09:14:26.345Z,1868.00
2023-05-07T09:15:26.342Z,1640.00
2023-05-07T09:16:26.420Z,1576.00
2023-05-07T09:17:26.322Z,1572.00
2023-05-07T09:18:26.357Z,1708.00
2023-05-07T09:19:26.311Z,1684.00
2023-05-07T09:20:26.286Z,1748.00
2023-05-07T09:21:26.274Z,1860.00
2023-05-07T09:22:26.385Z,1940.00
2023-05-07T09:23:26.335Z,2004.00
2023-05-07T09:24:26.223Z,1936.00
2023-05-07T09:25:26.236Z,1908.00
2023-05-07T09:26:26.239Z,2080.00
2023-05-07T09:27:26.231Z,2212.00
2023-05-07T09:28:26.255Z,1980.00
2023-05-07T09:29:26.202Z,1868.00
2023-05-07T09:30:26.168Z,1876.00
2023-05-07T09:31:26.183Z,1952.00
2023-05-07T09:32:26.242Z,1788.00
2023-05-07T09:33:26.150Z,1676.00
2023-05-07T09:34:26.115Z,1664.00
2023-05-07T09:35:26.126Z,1600.00
2023-05-07T09:36:26.187Z,1516.00
2023-05-07T09:37:26.100Z,1456.00
2023-05-07T09:38:26.088Z,1524.00
2023-05-07T09:39:26.076Z,1596.00
2023-05-07T09:40:26.089Z,1792.00
2023-05-07T09:41:26.034Z,1724.00
2023-05-07T09:42:26.044Z,1892.00
2023-05-07T09:43:26.088Z,2240.00
2023-05-07T09:44:26.044Z,2164.00
2023-05-07T09:45:26.224Z,2636.00
2023-05-07T09:46:26.036Z,2648.00
2023-05-07T09:47:26.074Z,2596.00
2023-05-07T09:48:25.970Z,3376.00
2023-05-07T09:49:25.997Z,3432.00
2023-05-07T09:50:26.019Z,3436.00
2023-05-07T09:51:25.949Z,2616.00
2023-05-07T09:52:25.931Z,2412.00
2023-05-07T09:53:25.950Z,2596.00
2023-05-07T09:54:25.922Z,3964.00
2023-05-07T09:55:25.918Z,3656.00
2023-05-07T09:56:25.911Z,3612.00
2023-05-07T09:57:25.867Z,3128.00
2023-05-07T09:58:25.865Z,3528.00
2023-05-07T09:59:25.851Z,3672.00
2023-05-07T10:00:25.882Z,3808.00
2023-05-07T10:01:26.083Z,3852.00
2023-05-07T10:02:25.891Z,3364.00
2023-05-07T10:03:25.971Z,2728.00
2023-05-07T10:04:25.786Z,3156.00
2023-05-07T10:05:25.840Z,3192.00
2023-05-07T10:06:25.773Z,3152.00
2023-05-07T10:07:25.780Z,3204.00
2023-05-07T10:08:25.752Z,3340.00
2023-05-07T10:09:25.761Z,3488.00
2023-05-07T10:10:25.732Z,3424.00
2023-05-07T10:11:25.841Z,2840.00
2023-05-07T10:12:25.722Z,2236.00
2023-05-07T10:13:25.749Z,2576.00
2023-05-07T10:14:25.700Z,2608.00
2023-05-07T10:15:25.714Z,2544.00
2023-05-07T10:16:25.746Z,2356.00
2023-05-07T10:17:25.845Z,2316.00
2023-05-07T10:18:25.858Z,2164.00
2023-05-07T10:19:25.629Z,1616.00
2023-05-07T10:20:25.635Z,1820.00
2023-05-07T10:21:25.629Z,1900.00
2023-05-07T10:22:25.622Z,1816.00
2023-05-07T10:23:25.645Z,2156.00
2023-05-07T10:24:25.577Z,2580.00
2023-05-07T10:25:25.592Z,2712.00
2023-05-07T10:26:25.581Z,2748.00
2023-05-07T10:27:25.604Z,2676.00
2023-05-07T10:28:25.539Z,2724.00
2023-05-07T10:29:25.558Z,2724.00
2023-05-07T10:30:27.576Z,2720.00
2023-05-07T10:31:25.542Z,2684.00
2023-05-07T10:32:25.500Z,2656.00
2023-05-07T10:33:25.573Z,2600.00
2023-05-07T10:34:25.504Z,2580.00
2023-05-07T10:35:25.471Z,2496.00
2023-05-07T10:36:25.452Z,2372.00
2023-05-07T10:37:25.504Z,2168.00
2023-05-07T10:38:25.457Z,2396.00
2023-05-07T10:39:25.438Z,2528.00
2023-05-07T10:40:25.464Z,2656.00
2023-05-07T10:41:25.435Z,2668.00
2023-05-07T10:42:25.381Z,2628.00
2023-05-07T10:43:25.572Z,2700.00
2023-05-07T10:44:25.353Z,2596.00
2023-05-07T10:45:25.367Z,2460.00
2023-05-07T10:46:25.460Z,2468.00
2023-05-07T10:47:25.387Z,2548.00
2023-05-07T10:48:30.108Z,2072.00
2023-05-07T10:49:26.324Z,2092.00
2023-05-07T10:50:25.427Z,2180.00
2023-05-07T10:51:25.336Z,2300.00
2023-05-07T10:52:25.284Z,2404.00
2023-05-07T10:53:25.341Z,2524.00
2023-05-07T10:54:25.316Z,1868.00
2023-05-07T10:55:25.258Z,2368.00
2023-05-07T10:56:25.230Z,2668.00
2023-05-07T10:57:25.239Z,2640.00
2023-05-07T10:58:31.329Z,2644.00
2023-05-07T10:59:26.216Z,2660.00
2023-05-07T11:00:37.904Z,1172.00
2023-05-07T11:01:27.583Z,1352.00
2023-05-07T11:02:25.205Z,2748.00
2023-05-07T11:03:25.167Z,2748.00
2023-05-07T11:04:25.142Z,2736.00
2023-05-07T11:05:25.304Z,2724.00
2023-05-07T11:06:25.237Z,2688.00
2023-05-07T11:07:25.131Z,2692.00
2023-05-07T11:08:25.155Z,2676.00
2023-05-07T11:09:25.079Z,2520.00
2023-05-07T11:10:25.070Z,2512.00
2023-05-07T11:11:25.094Z,2396.00
2023-05-07T11:12:25.090Z,2304.00
2023-05-07T11:13:25.204Z,2168.00
2023-05-07T11:14:25.099Z,2200.00
2023-05-07T11:15:25.096Z,2244.00
2023-05-07T11:16:25.045Z,2044.00
2023-05-07T11:17:25.107Z,2436.00
2023-05-07T11:18:25.030Z,2428.00
2023-05-07T11:19:24.973Z,2016.00
2023-05-07T11:20:24.980Z,1692.00
2023-05-07T11:21:24.986Z,1716.00
2023-05-07T11:22:24.937Z,1540.00
2023-05-07T11:23:24.976Z,1656.00
2023-05-07T11:24:24.918Z,1740.00
2023-05-07T11:25:24.928Z,1736.00
2023-05-07T11:26:24.933Z,1132.00
2023-05-07T11:27:24.966Z,1092.00
2023-05-07T11:28:24.894Z,1672.00
2023-05-07T11:29:24.888Z,1196.00
2023-05-07T11:30:24.863Z,2248.00
2023-05-07T11:31:24.913Z,2152.00
2023-05-07T11:32:24.828Z,2116.00
2023-05-07T11:33:24.939Z,1184.00
2023-05-07T11:34:24.852Z,1712.00
2023-05-07T11:35:24.798Z,1568.00
2023-05-07T11:36:24.792Z,2048.00
2023-05-07T11:37:24.801Z,1792.00
2023-05-07T11:38:24.760Z,1320.00
2023-05-07T11:39:24.805Z,2000.00
2023-05-07T11:40:24.771Z,1900.00
2023-05-07T11:41:24.740Z,1988.00
2023-05-07T11:42:24.729Z,1976.00
2023-05-07T11:43:24.727Z,1856.00
2023-05-07T11:44:24.707Z,1864.00
2023-05-07T11:45:24.797Z,1720.00
2023-05-07T11:46:24.850Z,1704.00
2023-05-07T11:47:24.708Z,1740.00
2023-05-07T11:48:24.661Z,1772.00
2023-05-07T11:49:24.646Z,1748.00
2023-05-07T11:50:24.645Z,1628.00
2023-05-07T11:51:24.704Z,1156.00
2023-05-07T11:52:24.666Z,1112.00
2023-05-07T11:53:24.647Z,1116.00
2023-05-07T11:54:24.637Z,1216.00
2023-05-07T11:55:24.610Z,1708.00
2023-05-07T11:56:24.578Z,2192.00
2023-05-07T11:57:24.631Z,2192.00
2023-05-07T11:58:24.579Z,2124.00
2023-05-07T11:59:24.551Z,1312.00
2023-05-07T12:00:24.544Z,1320.00
2023-05-07T12:01:24.534Z,1396.00
2023-05-07T12:02:24.592Z,1492.00
2023-05-07T12:03:24.692Z,1280.00
2023-05-07T12:04:24.669Z,1236.00
2023-05-07T12:05:24.493Z,1224.00
2023-05-07T12:06:24.469Z,1208.00
2023-05-07T12:07:24.459Z,1212.00
2023-05-07T12:08:24.454Z,1268.00
2023-05-07T12:09:24.493Z,1332.00
2023-05-07T12:10:24.426Z,1380.00
2023-05-07T12:11:24.425Z,1408.00
2023-05-07T12:12:24.428Z,1376.00
2023-05-07T12:13:24.473Z,1344.00
2023-05-07T12:14:24.377Z,1324.00
2023-05-07T12:15:24.466Z,1340.00
2023-05-07T12:16:24.410Z,1340.00
2023-05-07T12:17:24.365Z,1332.00
2023-05-07T12:18:24.377Z,1312.00
2023-05-07T12:19:24.360Z,1240.00
2023-05-07T12:20:24.339Z,1188.00
2023-05-07T12:21:24.361Z,1084.00
2023-05-07T12:22:24.329Z,1048.00
2023-05-07T12:23:24.290Z,1032.00
2023-05-07T12:24:24.304Z,1020.00
2023-05-07T12:25:24.297Z,1012.00
2023-05-07T12:26:24.273Z,1020.00
2023-05-07T12:27:24.297Z,1040.00
2023-05-07T12:28:24.248Z,960.00
2023-05-07T12:29:24.293Z,1032.00
2023-05-07T12:30:24.226Z,1064.00
2023-05-07T12:31:24.231Z,1096.00
2023-05-07T12:32:24.247Z,1140.00
2023-05-07T12:33:24.245Z,1296.00
2023-05-07T12:34:24.201Z,1408.00
2023-05-07T12:35:24.161Z,1404.00
2023-05-07T12:36:24.152Z,1376.00